sensor_id;sensor_type;location;lat;lon;timestamp;temperature;humidity
13416;DHT22;6779;50.150;8.680;2022-10-16T00:01:27;15.30;99.90
13416;DHT22;6779;50.150;8.680;2022-10-16T00:03:53;15.30;99.90
13416;DHT22;6779;50.150;8.680;2022-10-16T00:06:21;15.30;99.90
13416;DHT22;6779;50.150;8.680;2022-10-16T00:08:47;15.30;99.90
13416;DHT22;6779;50.150;8.680;2022-10-16T00:11:21;15.40;99.90
13416;DHT22;6779;50.150;8.680;2022-10-16T00:13:48;15.40;99.90
13416;DHT22;6779;50.150;8.680;2022-10-16T00:16:16;15.40;99.90
13416;DHT22;6779;50.150;8.680;2022-10-16T00:18:42;15.40;99.90
13416;DHT22;6779;50.150;8.680;2022-10-16T00:21:11;15.40;99.90
13416;DHT22;6779;50.150;8.680;2022-10-16T00:23:37;15.40;99.90
13416;DHT22;6779;50.150;8.680;2022-10-16T00:26:06;15.40;99.90
13416;DHT22;6779;50.150;8.680;2022-10-16T00:28:32;15.40;99.90
13416;DHT22;6779;50.150;8.680;2022-10-16T00:30:58;15.50;99.90
13416;DHT22;6779;50.150;8.680;2022-10-16T00:33:24;15.50;99.90
13416;DHT22;6779;50.150;8.680;2022-10-16T00:35:50;15.50;99.90
13416;DHT22;6779;50.150;8.680;2022-10-16T00:38:16;15.50;99.90
13416;DHT22;6779;50.150;8.680;2022-10-16T00:40:41;15.50;99.90
13416;DHT22;6779;50.150;8.680;2022-10-16T00:46:01;15.60;99.90
13416;DHT22;6779;50.150;8.680;2022-10-16T00:48:27;15.60;99.90
13416;DHT22;6779;50.150;8.680;2022-10-16T00:50:53;15.60;99.90
13416;DHT22;6779;50.150;8.680;2022-10-16T00:53:19;15.60;99.90
13416;DHT22;6779;50.150;8.680;2022-10-16T00:55:45;15.60;99.90
13416;DHT22;6779;50.150;8.680;2022-10-16T00:58:11;15.60;99.90
13416;DHT22;6779;50.150;8.680;2022-10-16T01:00:37;15.60;99.90
13416;DHT22;6779;50.150;8.680;2022-10-16T01:03:22;15.70;99.90
13416;DHT22;6779;50.150;8.680;2022-10-16T01:05:52;15.70;99.90
13416;DHT22;6779;50.150;8.680;2022-10-16T01:08:38;15.70;99.90
13416;DHT22;6779;50.150;8.680;2022-10-16T01:14:17;15.70;99.90
13416;DHT22;6779;50.150;8.680;2022-10-16T01:17:11;15.70;99.90
13416;DHT22;6779;50.150;8.680;2022-10-16T01:22:15;15.70;99.90
13416;DHT22;6779;50.150;8.680;2022-10-16T01:24:45;15.80;99.90
13416;DHT22;6779;50.150;8.680;2022-10-16T01:30:06;15.80;99.90
13416;DHT22;6779;50.150;8.680;2022-10-16T01:32:49;15.70;99.90
13416;DHT22;6779;50.150;8.680;2022-10-16T01:35:21;15.70;99.90
13416;DHT22;6779;50.150;8.680;2022-10-16T01:38:05;15.70;99.90
13416;DHT22;6779;50.150;8.680;2022-10-16T01:40:34;15.70;99.90
13416;DHT22;6779;50.150;8.680;2022-10-16T01:43:05;15.70;99.90
13416;DHT22;6779;50.150;8.680;2022-10-16T01:45:33;15.70;99.90
13416;DHT22;6779;50.150;8.680;2022-10-16T01:48:01;15.70;99.90
13416;DHT22;6779;50.150;8.680;2022-10-16T01:50:31;15.70;99.90
13416;DHT22;6779;50.150;8.680;2022-10-16T01:53:01;15.70;99.90
13416;DHT22;6779;50.150;8.680;2022-10-16T01:55:32;15.70;99.90
13416;DHT22;6779;50.150;8.680;2022-10-16T01:57:59;15.70;99.90
13416;DHT22;6779;50.150;8.680;2022-10-16T02:00:26;15.70;99.90
13416;DHT22;6779;50.150;8.680;2022-10-16T02:02:53;15.70;99.90
13416;DHT22;6779;50.150;8.680;2022-10-16T02:05:53;15.70;99.90
13416;DHT22;6779;50.150;8.680;2022-10-16T02:08:18;15.70;99.90
13416;DHT22;6779;50.150;8.680;2022-10-16T02:10:44;15.70;99.90
13416;DHT22;6779;50.150;8.680;2022-10-16T02:13:13;15.60;99.90
13416;DHT22;6779;50.150;8.680;2022-10-16T02:15:42;15.70;99.90
13416;DHT22;6779;50.150;8.680;2022-10-16T02:18:09;15.60;99.90
13416;DHT22;6779;50.150;8.680;2022-10-16T02:20:53;15.70;99.90
13416;DHT22;6779;50.150;8.680;2022-10-16T02:23:29;15.60;99.90
13416;DHT22;6779;50.150;8.680;2022-10-16T02:25:56;15.60;99.90
13416;DHT22;6779;50.150;8.680;2022-10-16T02:28:35;15.60;99.90
13416;DHT22;6779;50.150;8.680;2022-10-16T02:31:04;15.60;99.90
13416;DHT22;6779;50.150;8.680;2022-10-16T02:33:33;15.60;99.90
13416;DHT22;6779;50.150;8.680;2022-10-16T02:35:59;15.60;99.90
13416;DHT22;6779;50.150;8.680;2022-10-16T02:38:25;15.60;99.90
13416;DHT22;6779;50.150;8.680;2022-10-16T02:40:51;15.60;99.90
13416;DHT22;6779;50.150;8.680;2022-10-16T02:43:17;15.50;99.90
13416;DHT22;6779;50.150;8.680;2022-10-16T02:45:43;15.50;99.90
13416;DHT22;6779;50.150;8.680;2022-10-16T02:48:09;15.50;99.90
13416;DHT22;6779;50.150;8.680;2022-10-16T02:50:35;15.50;99.90
13416;DHT22;6779;50.150;8.680;2022-10-16T02:53:00;15.50;99.90
13416;DHT22;6779;50.150;8.680;2022-10-16T02:55:26;15.50;99.90
13416;DHT22;6779;50.150;8.680;2022-10-16T02:57:53;15.50;99.90
13416;DHT22;6779;50.150;8.680;2022-10-16T03:00:19;15.50;99.90
13416;DHT22;6779;50.150;8.680;2022-10-16T03:02:45;15.40;99.90
13416;DHT22;6779;50.150;8.680;2022-10-16T03:05:11;15.40;99.90
13416;DHT22;6779;50.150;8.680;2022-10-16T03:07:37;15.40;99.90
13416;DHT22;6779;50.150;8.680;2022-10-16T03:10:03;15.40;99.90
13416;DHT22;6779;50.150;8.680;2022-10-16T03:12:29;15.30;99.90
13416;DHT22;6779;50.150;8.680;2022-10-16T03:14:55;15.30;99.90
13416;DHT22;6779;50.150;8.680;2022-10-16T03:17:22;15.30;99.90
13416;DHT22;6779;50.150;8.680;2022-10-16T03:19:48;15.30;99.90
13416;DHT22;6779;50.150;8.680;2022-10-16T03:22:13;15.30;99.90
13416;DHT22;6779;50.150;8.680;2022-10-16T03:24:39;15.30;99.90
13416;DHT22;6779;50.150;8.680;2022-10-16T03:27:04;15.30;99.90
13416;DHT22;6779;50.150;8.680;2022-10-16T03:29:30;15.30;99.90
13416;DHT22;6779;50.150;8.680;2022-10-16T03:31:57;15.30;99.90
13416;DHT22;6779;50.150;8.680;2022-10-16T03:34:23;15.30;99.90
13416;DHT22;6779;50.150;8.680;2022-10-16T03:36:48;15.30;99.90
13416;DHT22;6779;50.150;8.680;2022-10-16T03:39:14;15.40;99.90
13416;DHT22;6779;50.150;8.680;2022-10-16T03:41:39;15.30;99.90
13416;DHT22;6779;50.150;8.680;2022-10-16T03:44:05;15.30;99.90
13416;DHT22;6779;50.150;8.680;2022-10-16T03:46:31;15.30;99.90
13416;DHT22;6779;50.150;8.680;2022-10-16T03:48:56;15.30;99.90
13416;DHT22;6779;50.150;8.680;2022-10-16T03:51:22;15.30;99.90
13416;DHT22;6779;50.150;8.680;2022-10-16T03:53:47;15.30;99.90
13416;DHT22;6779;50.150;8.680;2022-10-16T03:56:13;15.40;99.90
13416;DHT22;6779;50.150;8.680;2022-10-16T03:58:38;15.30;99.90
13416;DHT22;6779;50.150;8.680;2022-10-16T04:01:04;15.30;99.90
13416;DHT22;6779;50.150;8.680;2022-10-16T04:03:29;15.30;99.90
13416;DHT22;6779;50.150;8.680;2022-10-16T04:05:55;15.40;99.90
13416;DHT22;6779;50.150;8.680;2022-10-16T04:08:21;15.40;99.90
13416;DHT22;6779;50.150;8.680;2022-10-16T04:10:46;15.40;99.90
13416;DHT22;6779;50.150;8.680;2022-10-16T04:13:12;15.40;99.90
13416;DHT22;6779;50.150;8.680;2022-10-16T04:15:38;15.40;99.90
13416;DHT22;6779;50.150;8.680;2022-10-16T04:18:04;15.40;99.90
13416;DHT22;6779;50.150;8.680;2022-10-16T04:20:30;15.40;99.90
13416;DHT22;6779;50.150;8.680;2022-10-16T04:22:55;15.40;99.90
13416;DHT22;6779;50.150;8.680;2022-10-16T04:25:21;15.40;99.90
13416;DHT22;6779;50.150;8.680;2022-10-16T04:27:46;15.40;99.90
13416;DHT22;6779;50.150;8.680;2022-10-16T04:30:12;15.40;99.90
13416;DHT22;6779;50.150;8.680;2022-10-16T04:32:39;15.40;99.90
13416;DHT22;6779;50.150;8.680;2022-10-16T04:35:04;15.40;99.90
13416;DHT22;6779;50.150;8.680;2022-10-16T04:37:30;15.40;99.90
13416;DHT22;6779;50.150;8.680;2022-10-16T04:39:56;15.40;99.90
13416;DHT22;6779;50.150;8.680;2022-10-16T04:42:21;15.40;99.90
13416;DHT22;6779;50.150;8.680;2022-10-16T04:44:47;15.40;99.90
13416;DHT22;6779;50.150;8.680;2022-10-16T04:47:13;15.40;99.90
13416;DHT22;6779;50.150;8.680;2022-10-16T04:49:38;15.40;99.90
13416;DHT22;6779;50.150;8.680;2022-10-16T04:52:04;15.40;99.90
13416;DHT22;6779;50.150;8.680;2022-10-16T04:54:30;15.40;99.90
13416;DHT22;6779;50.150;8.680;2022-10-16T04:56:55;15.40;99.90
13416;DHT22;6779;50.150;8.680;2022-10-16T04:59:21;15.40;99.90
13416;DHT22;6779;50.150;8.680;2022-10-16T05:01:47;15.40;99.90
13416;DHT22;6779;50.150;8.680;2022-10-16T05:04:13;15.40;99.90
13416;DHT22;6779;50.150;8.680;2022-10-16T05:06:40;15.50;99.90
13416;DHT22;6779;50.150;8.680;2022-10-16T05:09:06;15.40;99.90
13416;DHT22;6779;50.150;8.680;2022-10-16T05:11:32;15.50;99.90
13416;DHT22;6779;50.150;8.680;2022-10-16T05:13:57;15.40;99.90
13416;DHT22;6779;50.150;8.680;2022-10-16T05:16:23;15.40;99.90
13416;DHT22;6779;50.150;8.680;2022-10-16T05:18:48;15.40;99.90
13416;DHT22;6779;50.150;8.680;2022-10-16T05:21:14;15.50;99.90
13416;DHT22;6779;50.150;8.680;2022-10-16T05:23:39;15.40;99.90
13416;DHT22;6779;50.150;8.680;2022-10-16T05:26:05;15.40;99.90
13416;DHT22;6779;50.150;8.680;2022-10-16T05:28:31;15.40;99.90
13416;DHT22;6779;50.150;8.680;2022-10-16T05:30:57;15.40;99.90
13416;DHT22;6779;50.150;8.680;2022-10-16T05:33:24;15.40;99.90
13416;DHT22;6779;50.150;8.680;2022-10-16T05:35:51;15.40;99.90
13416;DHT22;6779;50.150;8.680;2022-10-16T05:38:17;15.40;99.90
13416;DHT22;6779;50.150;8.680;2022-10-16T05:40:43;15.50;99.90
13416;DHT22;6779;50.150;8.680;2022-10-16T05:43:15;15.50;99.90
13416;DHT22;6779;50.150;8.680;2022-10-16T05:45:40;15.50;99.90
13416;DHT22;6779;50.150;8.680;2022-10-16T05:48:06;15.50;99.90
13416;DHT22;6779;50.150;8.680;2022-10-16T05:50:31;15.40;99.90
13416;DHT22;6779;50.150;8.680;2022-10-16T05:52:57;15.40;99.90
13416;DHT22;6779;50.150;8.680;2022-10-16T05:55:22;15.40;99.90
13416;DHT22;6779;50.150;8.680;2022-10-16T05:57:48;15.30;99.90
13416;DHT22;6779;50.150;8.680;2022-10-16T06:00:14;15.30;99.90
13416;DHT22;6779;50.150;8.680;2022-10-16T06:02:39;15.40;99.90
13416;DHT22;6779;50.150;8.680;2022-10-16T06:05:05;15.40;99.90
13416;DHT22;6779;50.150;8.680;2022-10-16T06:07:34;15.40;99.90
13416;DHT22;6779;50.150;8.680;2022-10-16T06:09:59;15.40;99.90
13416;DHT22;6779;50.150;8.680;2022-10-16T06:12:26;15.40;99.90
13416;DHT22;6779;50.150;8.680;2022-10-16T06:14:52;15.40;99.90
13416;DHT22;6779;50.150;8.680;2022-10-16T06:17:18;15.40;99.90
13416;DHT22;6779;50.150;8.680;2022-10-16T06:19:43;15.40;99.90
13416;DHT22;6779;50.150;8.680;2022-10-16T06:22:09;15.40;99.90
13416;DHT22;6779;50.150;8.680;2022-10-16T06:24:35;15.50;99.90
13416;DHT22;6779;50.150;8.680;2022-10-16T06:27:00;15.50;99.90
13416;DHT22;6779;50.150;8.680;2022-10-16T06:29:26;15.50;99.90
13416;DHT22;6779;50.150;8.680;2022-10-16T06:31:51;15.50;99.90
13416;DHT22;6779;50.150;8.680;2022-10-16T06:34:18;15.50;99.90
13416;DHT22;6779;50.150;8.680;2022-10-16T06:36:43;15.60;99.90
13416;DHT22;6779;50.150;8.680;2022-10-16T06:39:09;15.60;99.90
13416;DHT22;6779;50.150;8.680;2022-10-16T06:41:35;15.60;99.90
13416;DHT22;6779;50.150;8.680;2022-10-16T06:44:00;15.60;99.90
13416;DHT22;6779;50.150;8.680;2022-10-16T06:46:26;15.60;99.90
13416;DHT22;6779;50.150;8.680;2022-10-16T06:48:53;15.60;99.90
13416;DHT22;6779;50.150;8.680;2022-10-16T06:51:21;15.60;99.90
13416;DHT22;6779;50.150;8.680;2022-10-16T06:53:52;15.60;99.90
13416;DHT22;6779;50.150;8.680;2022-10-16T06:56:21;15.60;99.90
13416;DHT22;6779;50.150;8.680;2022-10-16T06:58:48;15.70;99.90
13416;DHT22;6779;50.150;8.680;2022-10-16T07:01:15;15.70;99.90
13416;DHT22;6779;50.150;8.680;2022-10-16T07:03:42;15.70;99.90
13416;DHT22;6779;50.150;8.680;2022-10-16T07:06:09;15.80;99.90
13416;DHT22;6779;50.150;8.680;2022-10-16T07:08:38;15.80;99.90
13416;DHT22;6779;50.150;8.680;2022-10-16T07:11:06;15.80;99.90
13416;DHT22;6779;50.150;8.680;2022-10-16T07:13:36;15.80;99.90
13416;DHT22;6779;50.150;8.680;2022-10-16T07:18:35;15.90;99.90
13416;DHT22;6779;50.150;8.680;2022-10-16T07:21:10;15.90;99.90
13416;DHT22;6779;50.150;8.680;2022-10-16T07:23:36;15.90;99.90
13416;DHT22;6779;50.150;8.680;2022-10-16T07:26:03;15.90;99.90
13416;DHT22;6779;50.150;8.680;2022-10-16T07:28:29;15.90;99.90
13416;DHT22;6779;50.150;8.680;2022-10-16T07:30:54;15.90;99.90
13416;DHT22;6779;50.150;8.680;2022-10-16T07:33:21;16.00;99.90
13416;DHT22;6779;50.150;8.680;2022-10-16T07:35:53;16.00;99.90
13416;DHT22;6779;50.150;8.680;2022-10-16T07:38:20;16.00;99.90
13416;DHT22;6779;50.150;8.680;2022-10-16T07:40:46;16.00;99.90
13416;DHT22;6779;50.150;8.680;2022-10-16T07:43:12;16.10;99.90
13416;DHT22;6779;50.150;8.680;2022-10-16T07:45:49;16.00;99.90
13416;DHT22;6779;50.150;8.680;2022-10-16T07:48:15;16.00;99.90
13416;DHT22;6779;50.150;8.680;2022-10-16T07:50:41;16.00;99.90
13416;DHT22;6779;50.150;8.680;2022-10-16T07:53:07;16.00;99.90
13416;DHT22;6779;50.150;8.680;2022-10-16T07:55:32;16.00;99.90
13416;DHT22;6779;50.150;8.680;2022-10-16T07:57:58;16.00;99.90
13416;DHT22;6779;50.150;8.680;2022-10-16T08:00:23;16.00;99.90
13416;DHT22;6779;50.150;8.680;2022-10-16T08:02:49;16.00;99.90
13416;DHT22;6779;50.150;8.680;2022-10-16T08:05:14;16.00;99.90
13416;DHT22;6779;50.150;8.680;2022-10-16T08:07:40;16.10;99.90
13416;DHT22;6779;50.150;8.680;2022-10-16T08:10:16;16.10;99.90
13416;DHT22;6779;50.150;8.680;2022-10-16T08:12:43;16.10;99.90
13416;DHT22;6779;50.150;8.680;2022-10-16T08:15:09;16.00;99.90
13416;DHT22;6779;50.150;8.680;2022-10-16T08:17:34;16.00;99.90
13416;DHT22;6779;50.150;8.680;2022-10-16T08:20:00;15.90;99.90
13416;DHT22;6779;50.150;8.680;2022-10-16T08:22:26;15.90;99.90
13416;DHT22;6779;50.150;8.680;2022-10-16T08:24:51;15.90;99.90
13416;DHT22;6779;50.150;8.680;2022-10-16T08:27:16;15.90;99.90
13416;DHT22;6779;50.150;8.680;2022-10-16T08:29:42;16.00;99.90
13416;DHT22;6779;50.150;8.680;2022-10-16T08:32:08;16.00;99.90
13416;DHT22;6779;50.150;8.680;2022-10-16T08:34:34;16.00;99.90
13416;DHT22;6779;50.150;8.680;2022-10-16T08:36:59;16.00;99.90
13416;DHT22;6779;50.150;8.680;2022-10-16T08:39:25;16.00;99.90
13416;DHT22;6779;50.150;8.680;2022-10-16T08:44:34;15.90;99.90
13416;DHT22;6779;50.150;8.680;2022-10-16T08:50:08;15.90;99.90
13416;DHT22;6779;50.150;8.680;2022-10-16T08:52:35;16.00;99.90
13416;DHT22;6779;50.150;8.680;2022-10-16T08:55:04;15.90;99.90
13416;DHT22;6779;50.150;8.680;2022-10-16T08:57:30;16.00;99.90
13416;DHT22;6779;50.150;8.680;2022-10-16T09:00:00;15.90;99.90
13416;DHT22;6779;50.150;8.680;2022-10-16T09:02:55;15.90;99.90
13416;DHT22;6779;50.150;8.680;2022-10-16T09:05:52;15.90;99.90
13416;DHT22;6779;50.150;8.680;2022-10-16T09:14:20;15.90;99.90
13416;DHT22;6779;50.150;8.680;2022-10-16T09:16:58;15.90;99.90
13416;DHT22;6779;50.150;8.680;2022-10-16T09:19:38;15.90;99.90
13416;DHT22;6779;50.150;8.680;2022-10-16T09:22:14;16.00;99.90
13416;DHT22;6779;50.150;8.680;2022-10-16T09:24:40;16.00;99.90
13416;DHT22;6779;50.150;8.680;2022-10-16T09:27:10;16.00;99.90
13416;DHT22;6779;50.150;8.680;2022-10-16T09:29:36;16.00;99.90
13416;DHT22;6779;50.150;8.680;2022-10-16T09:32:17;16.00;99.90
13416;DHT22;6779;50.150;8.680;2022-10-16T09:34:53;16.00;99.90
13416;DHT22;6779;50.150;8.680;2022-10-16T09:37:22;16.00;99.90
13416;DHT22;6779;50.150;8.680;2022-10-16T09:39:54;16.00;99.90
13416;DHT22;6779;50.150;8.680;2022-10-16T09:42:32;16.00;99.90
13416;DHT22;6779;50.150;8.680;2022-10-16T09:44:58;16.00;99.90
13416;DHT22;6779;50.150;8.680;2022-10-16T09:47:28;16.00;99.90
13416;DHT22;6779;50.150;8.680;2022-10-16T09:50:03;16.00;99.90
13416;DHT22;6779;50.150;8.680;2022-10-16T09:52:31;16.00;99.90
13416;DHT22;6779;50.150;8.680;2022-10-16T09:55:09;16.00;99.90
13416;DHT22;6779;50.150;8.680;2022-10-16T09:57:48;16.00;99.90
13416;DHT22;6779;50.150;8.680;2022-10-16T10:00:16;16.00;99.90
13416;DHT22;6779;50.150;8.680;2022-10-16T10:02:42;16.00;99.90
13416;DHT22;6779;50.150;8.680;2022-10-16T10:05:19;16.10;99.90
13416;DHT22;6779;50.150;8.680;2022-10-16T10:07:46;16.10;99.90
13416;DHT22;6779;50.150;8.680;2022-10-16T10:10:23;16.10;99.90
13416;DHT22;6779;50.150;8.680;2022-10-16T10:12:49;16.10;99.90
13416;DHT22;6779;50.150;8.680;2022-10-16T10:15:15;16.20;99.90
13416;DHT22;6779;50.150;8.680;2022-10-16T10:17:49;16.30;99.90
13416;DHT22;6779;50.150;8.680;2022-10-16T10:20:28;16.60;99.90
13416;DHT22;6779;50.150;8.680;2022-10-16T10:22:54;16.90;99.90
13416;DHT22;6779;50.150;8.680;2022-10-16T10:28:40;17.60;99.90
13416;DHT22;6779;50.150;8.680;2022-10-16T10:33:52;18.80;99.90
13416;DHT22;6779;50.150;8.680;2022-10-16T10:36:33;19.00;99.90
13416;DHT22;6779;50.150;8.680;2022-10-16T10:42:04;18.80;99.90
13416;DHT22;6779;50.150;8.680;2022-10-16T10:45:02;18.70;99.90
13416;DHT22;6779;50.150;8.680;2022-10-16T10:47:48;18.40;99.90
13416;DHT22;6779;50.150;8.680;2022-10-16T10:50:25;18.60;99.90
13416;DHT22;6779;50.150;8.680;2022-10-16T10:53:21;19.40;99.90
13416;DHT22;6779;50.150;8.680;2022-10-16T10:55:59;19.80;99.90
13416;DHT22;6779;50.150;8.680;2022-10-16T10:58:29;20.10;99.90
13416;DHT22;6779;50.150;8.680;2022-10-16T11:01:18;20.20;99.90
13416;DHT22;6779;50.150;8.680;2022-10-16T11:06:48;19.90;99.90
13416;DHT22;6779;50.150;8.680;2022-10-16T11:09:19;20.20;99.90
13416;DHT22;6779;50.150;8.680;2022-10-16T11:11:59;19.90;99.90
13416;DHT22;6779;50.150;8.680;2022-10-16T11:14:40;19.50;99.90
13416;DHT22;6779;50.150;8.680;2022-10-16T11:17:11;19.50;99.90
13416;DHT22;6779;50.150;8.680;2022-10-16T11:22:23;22.10;99.90
13416;DHT22;6779;50.150;8.680;2022-10-16T11:24:53;24.10;1.00
13416;DHT22;6779;50.150;8.680;2022-10-16T11:27:33;24.00;1.00
13416;DHT22;6779;50.150;8.680;2022-10-16T11:30:02;24.30;1.00
13416;DHT22;6779;50.150;8.680;2022-10-16T11:32:52;25.00;99.90
13416;DHT22;6779;50.150;8.680;2022-10-16T11:35:32;25.90;99.90
13416;DHT22;6779;50.150;8.680;2022-10-16T11:38:03;25.30;99.90
13416;DHT22;6779;50.150;8.680;2022-10-16T11:40:38;23.80;1.00
13416;DHT22;6779;50.150;8.680;2022-10-16T11:43:56;22.20;99.90
13416;DHT22;6779;50.150;8.680;2022-10-16T11:46:08;21.90;1.00
13416;DHT22;6779;50.150;8.680;2022-10-16T11:48:42;21.20;1.00
13416;DHT22;6779;50.150;8.680;2022-10-16T11:51:40;20.60;99.90
13416;DHT22;6779;50.150;8.680;2022-10-16T11:54:18;20.00;99.90
13416;DHT22;6779;50.150;8.680;2022-10-16T11:56:48;19.60;1.00
13416;DHT22;6779;50.150;8.680;2022-10-16T12:01:49;19.20;13.50
13416;DHT22;6779;50.150;8.680;2022-10-16T12:04:32;19.20;42.60
13416;DHT22;6779;50.150;8.680;2022-10-16T12:07:08;19.40;91.00
13416;DHT22;6779;50.150;8.680;2022-10-16T12:09:38;19.90;93.70
13416;DHT22;6779;50.150;8.680;2022-10-16T12:12:05;20.40;1.00
13416;DHT22;6779;50.150;8.680;2022-10-16T12:14:59;20.50;1.00
13416;DHT22;6779;50.150;8.680;2022-10-16T12:17:33;20.40;99.90
13416;DHT22;6779;50.150;8.680;2022-10-16T12:22:53;20.30;99.90
13416;DHT22;6779;50.150;8.680;2022-10-16T12:25:31;20.40;1.00
13416;DHT22;6779;50.150;8.680;2022-10-16T12:30:41;20.40;99.90
13416;DHT22;6779;50.150;8.680;2022-10-16T12:33:31;20.50;99.90
13416;DHT22;6779;50.150;8.680;2022-10-16T12:36:00;20.60;1.00
13416;DHT22;6779;50.150;8.680;2022-10-16T12:38:38;20.80;1.00
13416;DHT22;6779;50.150;8.680;2022-10-16T12:41:10;20.40;99.90
13416;DHT22;6779;50.150;8.680;2022-10-16T12:43:46;20.50;3.00
13416;DHT22;6779;50.150;8.680;2022-10-16T12:48:42;20.50;99.90
13416;DHT22;6779;50.150;8.680;2022-10-16T12:51:32;20.50;1.00
13416;DHT22;6779;50.150;8.680;2022-10-16T12:54:04;20.50;1.00
13416;DHT22;6779;50.150;8.680;2022-10-16T13:05:46;20.30;99.90
13416;DHT22;6779;50.150;8.680;2022-10-16T13:23:08;20.20;99.90
13416;DHT22;6779;50.150;8.680;2022-10-16T13:28:13;20.10;1.00
13416;DHT22;6779;50.150;8.680;2022-10-16T13:30:44;20.00;1.00
13416;DHT22;6779;50.150;8.680;2022-10-16T13:33:14;20.00;99.90
13416;DHT22;6779;50.150;8.680;2022-10-16T13:35:55;20.00;99.90
13416;DHT22;6779;50.150;8.680;2022-10-16T13:38:23;20.00;98.50
13416;DHT22;6779;50.150;8.680;2022-10-16T13:40:56;20.10;1.00
13416;DHT22;6779;50.150;8.680;2022-10-16T13:43:37;20.10;2.70
13416;DHT22;6779;50.150;8.680;2022-10-16T13:46:06;20.00;99.90
13416;DHT22;6779;50.150;8.680;2022-10-16T13:48:33;20.10;99.90
13416;DHT22;6779;50.150;8.680;2022-10-16T13:53:40;20.00;99.90
13416;DHT22;6779;50.150;8.680;2022-10-16T13:56:11;20.00;99.90
13416;DHT22;6779;50.150;8.680;2022-10-16T13:58:37;19.90;1.00
13416;DHT22;6779;50.150;8.680;2022-10-16T14:01:15;19.80;99.90
13416;DHT22;6779;50.150;8.680;2022-10-16T14:03:42;19.80;8.80
13416;DHT22;6779;50.150;8.680;2022-10-16T14:06:16;19.70;99.90
13416;DHT22;6779;50.150;8.680;2022-10-16T14:08:45;19.70;1.00
13416;DHT22;6779;50.150;8.680;2022-10-16T14:11:21;19.60;1.00
13416;DHT22;6779;50.150;8.680;2022-10-16T14:13:48;19.60;1.00
13416;DHT22;6779;50.150;8.680;2022-10-16T14:16:20;19.50;1.00
13416;DHT22;6779;50.150;8.680;2022-10-16T14:18:59;19.60;99.90
13416;DHT22;6779;50.150;8.680;2022-10-16T14:21:25;19.60;99.90
13416;DHT22;6779;50.150;8.680;2022-10-16T14:23:52;19.50;1.00
13416;DHT22;6779;50.150;8.680;2022-10-16T14:26:20;19.40;1.00
13416;DHT22;6779;50.150;8.680;2022-10-16T14:28:48;19.40;1.00
13416;DHT22;6779;50.150;8.680;2022-10-16T14:31:29;19.40;56.80
13416;DHT22;6779;50.150;8.680;2022-10-16T14:33:55;19.30;90.50
13416;DHT22;6779;50.150;8.680;2022-10-16T14:36:21;19.30;99.90
13416;DHT22;6779;50.150;8.680;2022-10-16T14:41:23;19.20;98.90
13416;DHT22;6779;50.150;8.680;2022-10-16T14:43:52;19.30;80.90
13416;DHT22;6779;50.150;8.680;2022-10-16T14:46:44;19.30;99.90
13416;DHT22;6779;50.150;8.680;2022-10-16T14:51:34;19.40;15.50
13416;DHT22;6779;50.150;8.680;2022-10-16T14:54:00;19.40;1.00
13416;DHT22;6779;50.150;8.680;2022-10-16T14:56:31;19.40;31.00
13416;DHT22;6779;50.150;8.680;2022-10-16T14:58:58;19.40;99.90
13416;DHT22;6779;50.150;8.680;2022-10-16T15:01:23;19.40;91.30
13416;DHT22;6779;50.150;8.680;2022-10-16T15:03:49;19.40;1.00
13416;DHT22;6779;50.150;8.680;2022-10-16T15:06:17;19.40;1.00
13416;DHT22;6779;50.150;8.680;2022-10-16T15:08:43;19.40;1.00
13416;DHT22;6779;50.150;8.680;2022-10-16T15:11:15;19.40;1.00
13416;DHT22;6779;50.150;8.680;2022-10-16T15:13:41;19.40;1.00
13416;DHT22;6779;50.150;8.680;2022-10-16T15:16:14;19.40;1.00
13416;DHT22;6779;50.150;8.680;2022-10-16T15:18:40;19.40;1.00
13416;DHT22;6779;50.150;8.680;2022-10-16T15:21:06;19.50;1.00
13416;DHT22;6779;50.150;8.680;2022-10-16T15:23:31;19.40;1.00
13416;DHT22;6779;50.150;8.680;2022-10-16T15:25:57;19.40;1.00
13416;DHT22;6779;50.150;8.680;2022-10-16T15:28:24;19.40;1.00
13416;DHT22;6779;50.150;8.680;2022-10-16T15:30:54;19.30;15.00
13416;DHT22;6779;50.150;8.680;2022-10-16T15:33:23;19.30;1.00
13416;DHT22;6779;50.150;8.680;2022-10-16T15:35:50;19.30;1.00
13416;DHT22;6779;50.150;8.680;2022-10-16T15:38:18;19.30;1.00
13416;DHT22;6779;50.150;8.680;2022-10-16T15:40:44;19.30;17.10
13416;DHT22;6779;50.150;8.680;2022-10-16T15:43:10;19.20;1.00
13416;DHT22;6779;50.150;8.680;2022-10-16T15:45:36;19.20;56.90
13416;DHT22;6779;50.150;8.680;2022-10-16T15:48:02;19.20;93.90
13416;DHT22;6779;50.150;8.680;2022-10-16T15:50:30;19.10;99.90
13416;DHT22;6779;50.150;8.680;2022-10-16T15:52:55;19.00;99.90
13416;DHT22;6779;50.150;8.680;2022-10-16T15:55:21;19.00;99.90
13416;DHT22;6779;50.150;8.680;2022-10-16T15:57:47;19.00;99.90
13416;DHT22;6779;50.150;8.680;2022-10-16T16:00:16;19.00;99.90
13416;DHT22;6779;50.150;8.680;2022-10-16T16:02:43;19.00;99.90
13416;DHT22;6779;50.150;8.680;2022-10-16T16:05:10;18.90;99.90
13416;DHT22;6779;50.150;8.680;2022-10-16T16:07:37;18.90;99.90
13416;DHT22;6779;50.150;8.680;2022-10-16T16:10:05;19.00;99.90
13416;DHT22;6779;50.150;8.680;2022-10-16T16:12:32;18.90;99.90
13416;DHT22;6779;50.150;8.680;2022-10-16T16:14:57;18.90;99.90
13416;DHT22;6779;50.150;8.680;2022-10-16T16:17:23;18.90;99.90
13416;DHT22;6779;50.150;8.680;2022-10-16T16:19:49;18.80;99.90
13416;DHT22;6779;50.150;8.680;2022-10-16T16:22:15;18.80;99.90
13416;DHT22;6779;50.150;8.680;2022-10-16T16:24:40;18.80;99.90
13416;DHT22;6779;50.150;8.680;2022-10-16T16:27:06;18.70;99.90
13416;DHT22;6779;50.150;8.680;2022-10-16T16:29:32;18.70;99.90
13416;DHT22;6779;50.150;8.680;2022-10-16T16:31:59;18.60;99.90
13416;DHT22;6779;50.150;8.680;2022-10-16T16:34:28;18.60;99.90
13416;DHT22;6779;50.150;8.680;2022-10-16T16:36:54;18.70;99.90
13416;DHT22;6779;50.150;8.680;2022-10-16T16:39:20;18.60;99.90
13416;DHT22;6779;50.150;8.680;2022-10-16T16:41:46;18.50;99.90
13416;DHT22;6779;50.150;8.680;2022-10-16T16:44:13;18.60;99.90
13416;DHT22;6779;50.150;8.680;2022-10-16T16:46:40;18.60;99.90
13416;DHT22;6779;50.150;8.680;2022-10-16T16:49:06;18.60;99.90
13416;DHT22;6779;50.150;8.680;2022-10-16T16:51:32;18.50;99.90
13416;DHT22;6779;50.150;8.680;2022-10-16T16:53:59;18.40;99.90
13416;DHT22;6779;50.150;8.680;2022-10-16T16:56:25;18.30;99.90
13416;DHT22;6779;50.150;8.680;2022-10-16T16:58:53;18.30;99.90
13416;DHT22;6779;50.150;8.680;2022-10-16T17:01:20;18.30;99.90
13416;DHT22;6779;50.150;8.680;2022-10-16T17:03:45;18.30;99.90
13416;DHT22;6779;50.150;8.680;2022-10-16T17:06:13;18.30;99.90
13416;DHT22;6779;50.150;8.680;2022-10-16T17:08:40;18.30;99.90
13416;DHT22;6779;50.150;8.680;2022-10-16T17:11:06;18.30;99.90
13416;DHT22;6779;50.150;8.680;2022-10-16T17:13:33;18.30;99.90
13416;DHT22;6779;50.150;8.680;2022-10-16T17:16:04;18.30;99.90
13416;DHT22;6779;50.150;8.680;2022-10-16T17:18:30;18.30;99.90
13416;DHT22;6779;50.150;8.680;2022-10-16T17:20:59;18.20;99.90
13416;DHT22;6779;50.150;8.680;2022-10-16T17:23:25;18.20;99.90
13416;DHT22;6779;50.150;8.680;2022-10-16T17:25:51;18.10;99.90